Time;durP1;ratioP1;P1;durP2;ratioP2;P2;SDS_P1;SDS_P2;PMS_P1;PMS_P2;Temp;Humidity;BMP_temperature;BMP_pressure;BME280_temperature;BME280_humidity;BME280_pressure;Samples;Min_cycle;Max_cycle;Signal;HPM_P1;HPM_P2
2022/11/28 00:02:17;;;;;;;25.70;13.15;;;;;;;6.30;100.00;101083.66;7375967;19;20022;-77
2022/11/28 00:04:47;;;;;;;22.40;12.27;;;;;;;6.33;100.00;101076.81;7376859;19;20353;-78
2022/11/28 00:07:16;;;;;;;22.65;11.52;;;;;;;6.36;100.00;101068.22;7375705;19;20022;-74
2022/11/28 00:09:48;;;;;;;22.65;12.13;;;;;;;6.40;100.00;101068.38;7377091;19;20022;-76
2022/11/28 00:12:18;;;;;;;17.40;10.50;;;;;;;6.44;100.00;101066.75;7374860;19;20237;-76
2022/11/28 00:14:48;;;;;;;23.10;11.82;;;;;;;6.44;100.00;101053.75;7375535;19;20097;-75
2022/11/28 00:17:17;;;;;;;20.35;10.48;;;;;;;6.47;100.00;101046.03;7375516;19;20017;-74
2022/11/28 00:19:47;;;;;;;19.85;11.20;;;;;;;6.49;100.00;101044.34;7374480;19;20006;-75
2022/11/28 00:22:16;;;;;;;16.60;9.98;;;;;;;6.52;100.00;101042.72;7376648;19;20015;-76
2022/11/28 00:24:48;;;;;;;20.40;10.02;;;;;;;6.53;100.00;101047.09;7376433;19;20011;-75
2022/11/28 00:27:18;;;;;;;18.25;10.07;;;;;;;6.57;100.00;101054.19;7374239;19;20006;-75
2022/11/28 00:29:48;;;;;;;17.02;9.20;;;;;;;6.59;100.00;101051.63;7379194;19;20022;-76
2022/11/28 00:32:17;;;;;;;20.70;10.95;;;;;;;6.64;100.00;101051.78;7377122;19;20550;-75
2022/11/28 00:34:47;;;;;;;19.45;10.48;;;;;;;6.60;100.00;101045.59;7373347;19;20015;-75
2022/11/28 00:37:17;;;;;;;16.13;9.63;;;;;;;6.61;100.00;101049.09;7375865;19;20019;-76
2022/11/28 00:39:49;;;;;;;17.70;9.70;;;;;;;6.63;100.00;101043.09;7375011;19;20074;-75
2022/11/28 00:42:19;;;;;;;16.40;9.82;;;;;;;6.64;100.00;101050.06;7374444;19;20018;-75
2022/11/28 00:44:49;;;;;;;19.50;9.93;;;;;;;6.68;100.00;101040.63;7378108;19;20337;-75
2022/11/28 00:47:19;;;;;;;17.33;9.68;;;;;;;6.65;100.00;101038.81;7373159;19;20018;-76
2022/11/28 00:49:49;;;;;;;16.27;9.43;;;;;;;6.69;100.00;101038.06;7373572;19;20297;-76
2022/11/28 00:52:18;;;;;;;16.65;9.15;;;;;;;6.71;100.00;101031.19;7371813;19;20018;-76
2022/11/28 00:54:50;;;;;;;18.42;9.15;;;;;;;6.72;100.00;101032.94;7371342;19;20026;-76
2022/11/28 00:57:20;;;;;;;17.65;9.70;;;;;;;6.78;100.00;101033.16;7373475;19;20014;-76
2022/11/28 00:59:50;;;;;;;18.25;9.52;;;;;;;6.76;100.00;101037.44;7372492;19;20018;-76
2022/11/28 01:02:19;;;;;;;18.48;10.07;;;;;;;6.79;100.00;101027.09;7373049;19;20022;-75
2022/11/28 01:04:49;;;;;;;18.10;9.35;;;;;;;6.80;100.00;101031.47;7373769;19;20010;-76
2022/11/28 01:07:19;;;;;;;20.80;10.48;;;;;;;6.80;100.00;101025.38;7374316;19;20022;-76
2022/11/28 01:09:51;;;;;;;17.15;9.93;;;;;;;6.81;100.00;101016.72;7374562;19;20141;-75
2022/11/28 01:12:20;;;;;;;20.90;10.85;;;;;;;6.83;100.00;101013.31;7371777;19;20014;-75
2022/11/28 01:14:50;;;;;;;15.55;9.00;;;;;;;6.84;100.00;101020.31;7370960;19;20094;-76
2022/11/28 01:17:20;;;;;;;17.98;9.80;;;;;;;6.87;100.00;101020.41;7371976;19;20090;-75
2022/11/28 01:19:49;;;;;;;15.30;8.90;;;;;;;6.88;100.00;101027.38;7373352;19;20025;-75
2022/11/28 01:22:19;;;;;;;15.57;8.05;;;;;;;6.90;100.00;101024.81;7373940;19;20082;-75
2022/11/28 01:24:51;;;;;;;17.75;9.15;;;;;;;6.92;100.00;101014.44;7375024;19;20022;-73
2022/11/28 01:27:21;;;;;;;14.82;8.25;;;;;;;6.96;100.00;101013.69;7374964;19;20011;-73
2022/11/28 01:29:51;;;;;;;15.18;8.65;;;;;;;6.98;100.00;101009.41;7373868;19;20026;-73
2022/11/28 01:32:20;;;;;;;14.52;7.75;;;;;;;7.04;100.00;101007.88;7369546;19;20523;-73
2022/11/28 01:34:50;;;;;;;15.35;8.18;;;;;;;7.01;100.00;101004.28;7367961;19;20019;-73
2022/11/28 01:37:19;;;;;;;15.50;8.05;;;;;;;7.07;100.00;101007.09;7370660;19;20022;-73
2022/11/28 01:39:51;;;;;;;12.73;7.20;;;;;;;7.16;100.00;100999.53;7370000;19;20022;-74
2022/11/28 01:42:21;;;;;;;15.75;7.72;;;;;;;7.11;100.00;101012.44;7373291;19;20021;-73
2022/11/28 01:45:10;;;;;;;14.82;8.60;;;;;;;7.09;100.00;101018.44;7371483;19;20014;-72
2022/11/28 01:47:39;;;;;;;15.07;7.90;;;;;;;7.14;100.00;101022.09;7372981;19;20043;-72
2022/11/28 01:50:10;;;;;;;14.70;7.90;;;;;;;7.14;100.00;101011.66;7374326;19;20010;-73
2022/11/28 01:52:43;;;;;;;13.32;7.35;;;;;;;7.14;100.00;101014.25;7371721;19;20021;-73
2022/11/28 01:55:19;;;;;;;13.73;8.10;;;;;;;7.14;100.00;101006.44;7374174;19;20010;-72
2022/11/28 01:57:48;;;;;;;14.68;7.50;;;;;;;7.19;100.00;100995.28;7372704;19;20017;-73
2022/11/28 02:00:21;;;;;;;13.85;7.78;;;;;;;7.19;100.00;101005.72;7372889;19;20046;-76
2022/11/28 02:02:54;;;;;;;14.73;8.27;;;;;;;7.21;100.00;101005.78;7372945;19;20156;-75
2022/11/28 02:05:24;;;;;;;13.77;7.53;;;;;;;7.21;100.00;101004.06;7368396;19;20023;-74
2022/11/28 02:07:54;;;;;;;14.85;8.20;;;;;;;7.26;100.00;101000.69;7367632;19;20035;-76
2022/11/28 02:10:30;;;;;;;14.90;8.00;;;;;;;7.24;100.00;100995.44;7366928;19;20014;-76
2022/11/28 02:13:15;;;;;;;13.77;7.93;;;;;;;7.29;100.00;101000.75;7369111;19;20026;-76
2022/11/28 02:15:56;;;;;;;14.32;7.70;;;;;;;7.29;100.00;100999.03;7369530;19;20010;-76
2022/11/28 02:18:42;;;;;;;15.93;8.48;;;;;;;7.29;100.00;100991.19;7372483;19;20034;-75
2022/11/28 02:21:54;;;;;;;16.40;8.50;;;;;;;7.30;100.00;100995.56;7372361;19;20014;-75
2022/11/28 02:24:53;;;;;;;14.65;8.32;;;;;;;7.37;100.00;101002.75;7372433;19;20029;-75
2022/11/28 02:27:37;;;;;;;15.52;8.35;;;;;;;7.36;100.00;100997.47;7371464;19;20014;-76
2022/11/28 02:30:13;;;;;;;14.50;7.72;;;;;;;7.39;100.00;100997.56;7365394;19;20760;-75
2022/11/28 02:33:01;;;;;;;14.18;8.00;;;;;;;7.37;100.00;100994.91;7368459;19;20862;-75
2022/11/28 02:35:39;;;;;;;16.52;8.30;;;;;;;7.37;100.00;100989.69;7371373;19;20015;-75
2022/11/28 02:38:16;;;;;;;12.70;7.13;;;;;;;7.39;100.00;100993.22;7370552;19;20025;-75
2022/11/28 02:40:54;;;;;;;14.98;7.85;;;;;;;7.38;100.00;100998.41;7370110;19;20013;-75
2022/11/28 02:43:33;;;;;;;16.67;7.82;;;;;;;7.44;100.00;100986.41;7370750;19;20592;-78
2022/11/28 02:46:08;;;;;;;14.45;8.43;;;;;;;7.42;100.00;100992.44;7377001;19;20014;-75
2022/11/28 02:48:49;;;;;;;16.60;8.45;;;;;;;7.42;100.00;100988.09;7377732;19;20021;-76
2022/11/28 02:51:26;;;;;;;17.80;8.90;;;;;;;7.41;100.00;100996.75;7375474;19;20027;-76
2022/11/28 02:53:58;;;;;;;14.80;8.20;;;;;;;7.40;100.00;100995.00;7373487;19;20014;-76
2022/11/28 02:56:28;;;;;;;15.27;7.95;;;;;;;7.41;100.00;100991.53;7377486;19;20018;-75
2022/11/28 02:58:57;;;;;;;15.40;9.50;;;;;;;7.41;100.00;100990.66;7378435;19;20015;-76
2022/11/28 03:01:31;;;;;;;15.93;8.25;;;;;;;7.40;100.00;100984.56;7372328;19;20018;-77
2022/11/28 03:04:26;;;;;;;13.77;6.95;;;;;;;7.41;100.00;100986.34;7377240;19;20662;-76
2022/11/28 03:07:03;;;;;;;14.25;8.13;;;;;;;7.43;100.00;100989.88;7376693;19;20014;-76
2022/11/28 03:09:55;;;;;;;15.35;7.97;;;;;;;7.41;100.00;100991.53;7372513;19;20014;-77
2022/11/28 03:12:33;;;;;;;14.43;8.18;;;;;;;7.37;100.00;100989.69;7371535;19;20014;-77
2022/11/28 03:15:06;;;;;;;14.85;8.00;;;;;;;7.34;100.00;100992.22;7375659;19;20022;-77
2022/11/28 03:17:43;;;;;;;15.63;8.30;;;;;;;7.34;100.00;100996.53;7376649;19;20011;-77
2022/11/28 03:20:23;;;;;;;14.70;8.07;;;;;;;7.32;100.00;100986.06;7373314;19;20018;-76
2022/11/28 03:23:15;;;;;;;16.55;8.48;;;;;;;7.35;100.00;100980.06;7372255;19;20014;-77
2022/11/28 03:25:56;;;;;;;16.88;10.18;;;;;;;7.32;100.00;100975.63;7373500;19;20046;-77
2022/11/28 03:28:32;;;;;;;15.65;8.55;;;;;;;7.32;100.00;100983.47;7372421;19;20142;-77
2022/11/28 03:31:05;;;;;;;15.13;8.50;;;;;;;7.28;100.00;100989.44;7377032;19;20011;-76
2022/11/28 03:33:38;;;;;;;15.55;8.00;;;;;;;7.32;100.00;101000.84;7374773;19;20011;-76
2022/11/28 03:36:16;;;;;;;18.92;10.13;;;;;;;7.30;100.00;101000.78;7374283;19;20014;-78
2022/11/28 03:38:49;;;;;;;17.30;9.10;;;;;;;7.26;100.00;101009.41;7373941;19;20016;-75
2022/11/28 03:41:26;;;;;;;18.63;9.90;;;;;;;7.27;100.00;101002.47;7375212;19;20014;-77
2022/11/28 03:43:59;;;;;;;18.33;9.48;;;;;;;7.24;100.00;100997.16;7374762;19;20019;-76
2022/11/28 03:46:36;;;;;;;17.90;9.35;;;;;;;7.24;100.00;100997.16;7376554;19;20022;-77
2022/11/28 03:49:08;;;;;;;15.98;9.05;;;;;;;7.22;100.00;100995.38;7371791;19;20006;-75
2022/11/28 03:51:47;;;;;;;18.92;9.43;;;;;;;7.20;100.00;100989.25;7374762;19;20075;-76
2022/11/28 03:54:23;;;;;;;20.55;9.82;;;;;;;7.21;100.00;100977.09;7374116;19;20018;-78
2022/11/28 03:56:58;;;;;;;17.65;9.27;;;;;;;7.20;100.00;100983.13;7372911;19;20018;-75
2022/11/28 03:59:34;;;;;;;20.58;10.35;;;;;;;7.20;100.00;100984.03;7374641;19;20545;-78
2022/11/28 04:02:08;;;;;;;18.42;10.23;;;;;;;7.20;100.00;100985.75;7371068;19;20007;-77
2022/11/28 04:04:44;;;;;;;21.27;11.68;;;;;;;7.23;100.00;100996.28;7375621;19;20018;-77
2022/11/28 04:07:25;;;;;;;22.10;11.13;;;;;;;7.19;100.00;100995.28;7374288;19;20030;-77
2022/11/28 04:10:10;;;;;;;24.38;12.60;;;;;;;7.19;100.00;101000.50;7372689;19;20015;-78
2022/11/28 04:12:52;;;;;;;22.45;12.60;;;;;;;7.21;100.00;100996.22;7373491;19;20029;-79
2022/11/28 04:15:32;;;;;;;24.50;12.80;;;;;;;7.19;100.00;100991.81;7372925;19;20018;-78
2022/11/28 04:18:06;;;;;;;20.55;11.90;;;;;;;7.17;100.00;100990.88;7376807;19;20014;-78
2022/11/28 04:20:40;;;;;;;23.42;12.40;;;;;;;7.16;100.00;100987.38;7374827;19;20014;-78
2022/11/28 04:23:17;;;;;;;26.90;13.80;;;;;;;7.16;100.00;100994.31;7374125;19;20011;-77
2022/11/28 04:25:52;;;;;;;24.67;13.93;;;;;;;7.17;100.00;100996.09;7374306;19;20168;-78
2022/11/28 04:28:27;;;;;;;28.38;13.30;;;;;;;7.17;100.00;100990.88;7375060;19;20007;-79
2022/11/28 04:30:59;;;;;;;24.48;13.40;;;;;;;7.16;100.00;100986.50;7374086;19;20021;-78
2022/11/28 04:33:33;;;;;;;24.50;14.27;;;;;;;7.17;100.00;100996.97;7374169;19;20046;-79
2022/11/28 04:36:04;;;;;;;26.88;13.68;;;;;;;7.18;100.00;101003.06;7374613;19;20098;-78
2022/11/28 04:38:39;;;;;;;25.58;13.50;;;;;;;7.18;100.00;101006.56;7373900;19;20090;-78
2022/11/28 04:41:16;;;;;;;31.02;15.48;;;;;;;7.19;100.00;101004.84;7371036;19;20566;-78
2022/11/28 04:43:52;;;;;;;26.45;14.15;;;;;;;7.18;100.00;101003.97;7372885;19;20010;-78
2022/11/28 04:46:26;;;;;;;30.63;15.25;;;;;;;7.18;100.00;101013.50;7374695;19;19998;-78
2022/11/28 04:48:56;;;;;;;29.90;14.70;;;;;;;7.19;100.00;101020.50;7374538;19;20019;-78
2022/11/28 04:51:32;;;;;;;31.85;15.65;;;;;;;7.18;100.00;101011.78;7371982;19;20026;-77
2022/11/28 04:54:12;;;;;;;31.33;15.73;;;;;;;7.16;100.00;101010.84;7373300;19;20098;-77
2022/11/28 04:56:45;;;;;;;29.95;13.95;;;;;;;7.23;100.00;101014.53;7372986;19;20337;-77
2022/11/28 04:59:16;;;;;;;26.88;14.15;;;;;;;7.19;100.00;101015.28;7374546;19;20680;-77
2022/11/28 05:01:49;;;;;;;27.50;14.80;;;;;;;7.18;100.00;101013.50;7371403;19;20014;-76
2022/11/28 05:04:19;;;;;;;29.05;14.98;;;;;;;7.17;100.00;101019.56;7373717;19;20264;-76
2022/11/28 05:06:49;;;;;;;30.23;15.70;;;;;;;7.15;100.00;101016.91;7369409;19;20640;-76
2022/11/28 05:09:21;;;;;;;26.40;14.88;;;;;;;7.15;100.00;101016.03;7371049;19;20678;-77
2022/11/28 05:11:51;;;;;;;30.20;16.08;;;;;;;7.15;100.00;101023.84;7374399;19;20110;-77
2022/11/28 05:14:21;;;;;;;32.78;14.57;;;;;;;7.15;100.00;101024.72;7376305;19;20090;-77
2022/11/28 05:16:50;;;;;;;30.45;14.82;;;;;;;7.21;100.00;101031.84;7370762;19;20047;-77
2022/11/28 05:19:20;;;;;;;35.70;16.30;;;;;;;7.18;100.00;101029.16;7374380;19;20018;-74
2022/11/28 05:21:52;;;;;;;34.75;16.77;;;;;;;7.17;100.00;101036.09;7370603;19;20021;-74
2022/11/28 05:24:24;;;;;;;38.58;16.55;;;;;;;7.16;100.00;101041.28;7371761;19;20018;-74
2022/11/28 05:27:00;;;;;;;37.92;16.23;;;;;;;7.20;100.00;101035.31;7370773;19;20011;-75
2022/11/28 05:29:30;;;;;;;41.65;18.45;;;;;;;7.17;100.00;101032.59;7369787;19;20029;-74
2022/11/28 05:31:59;;;;;;;34.20;17.17;;;;;;;7.15;100.00;101039.50;7371100;19;20022;-76
2022/11/28 05:34:30;;;;;;;36.65;17.40;;;;;;;7.19;100.00;101038.75;7367200;19;20014;-75
2022/11/28 05:36:59;;;;;;;36.95;16.88;;;;;;;7.19;100.00;101038.75;7369773;19;20022;-75
2022/11/28 05:39:32;;;;;;;39.60;17.65;;;;;;;7.18;100.00;101044.81;7371575;19;20739;-75
2022/11/28 05:42:02;;;;;;;38.78;16.05;;;;;;;7.18;100.00;101048.31;7370212;19;20011;-76
2022/11/28 05:44:31;;;;;;;43.67;19.38;;;;;;;7.17;100.00;101043.94;7370492;19;20022;-74
2022/11/28 05:47:01;;;;;;;39.53;17.25;;;;;;;7.19;100.00;101041.38;7367335;19;20090;-75
2022/11/28 05:49:31;;;;;;;37.15;16.23;;;;;;;7.16;100.00;101052.59;7368683;19;20025;-73
2022/11/28 05:52:00;;;;;;;45.10;19.38;;;;;;;7.16;100.00;101044.75;7368993;19;20102;-73
2022/11/28 05:54:32;;;;;;;41.60;17.60;;;;;;;7.19;100.00;101054.41;7369240;19;20100;-74
2022/11/28 05:57:05;;;;;;;44.75;19.90;;;;;;;7.19;100.00;101051.78;7369063;19;20022;-73
2022/11/28 05:59:34;;;;;;;42.42;21.63;;;;;;;7.18;100.00;101044.81;7370878;19;20026;-74
2022/11/28 06:02:04;;;;;;;46.38;20.50;;;;;;;7.18;100.00;101050.91;7370088;19;20115;-74
2022/11/28 06:04:34;;;;;;;48.83;19.42;;;;;;;7.20;100.00;101056.16;7368275;19;20018;-74
2022/11/28 06:07:03;;;;;;;47.13;19.67;;;;;;;7.19;100.00;101055.28;7370256;19;20018;-74
2022/11/28 06:09:36;;;;;;;44.67;19.90;;;;;;;7.19;100.00;101051.78;7370563;19;20015;-74
2022/11/28 06:12:06;;;;;;;49.28;19.00;;;;;;;7.20;100.00;101044.03;7371863;19;20118;-73
2022/11/28 06:14:35;;;;;;;51.15;18.10;;;;;;;7.21;100.00;101053.63;7371544;19;20015;-73
2022/11/28 06:17:05;;;;;;;44.90;18.48;;;;;;;7.18;100.00;101043.09;7371699;19;20090;-73
2022/11/28 06:19:35;;;;;;;43.80;18.13;;;;;;;7.19;100.00;101046.56;7378905;19;20015;-73
2022/11/28 06:22:05;;;;;;;47.78;19.73;;;;;;;7.19;100.00;101046.56;7377786;19;20064;-74
2022/11/28 06:24:37;;;;;;;44.65;20.67;;;;;;;7.19;100.00;101050.06;7377110;19;20021;-73
2022/11/28 06:27:06;;;;;;;48.33;19.05;;;;;;;7.19;100.00;101057.91;7372941;19;20014;-73
2022/11/28 06:29:36;;;;;;;48.47;18.65;;;;;;;7.20;100.00;101048.34;7375933;19;20526;-73
2022/11/28 06:32:06;;;;;;;49.50;20.67;;;;;;;7.21;100.00;101060.56;7374139;19;20792;-73
2022/11/28 06:34:36;;;;;;;50.70;20.05;;;;;;;7.22;100.00;101067.53;7376956;19;20011;-73
2022/11/28 06:37:05;;;;;;;52.65;21.13;;;;;;;7.21;100.00;101056.22;7373948;19;20019;-73
2022/11/28 06:39:38;;;;;;;46.05;19.55;;;;;;;7.22;100.00;101060.59;7375341;19;20010;-74
2022/11/28 06:42:07;;;;;;;62.22;23.02;;;;;;;7.24;100.00;101064.97;7371989;19;20019;-74
2022/11/28 06:44:37;;;;;;;47.22;19.13;;;;;;;7.25;100.00;101067.63;7377216;19;20007;-75
2022/11/28 06:47:07;;;;;;;53.63;21.55;;;;;;;7.26;100.00;101069.41;7378425;19;20094;-74
2022/11/28 06:49:37;;;;;;;53.65;19.33;;;;;;;7.26;100.00;101061.56;7379828;19;20017;-76
2022/11/28 06:52:07;;;;;;;57.85;22.33;;;;;;;7.25;100.00;101061.53;7376261;19;20015;-75
2022/11/28 06:54:39;;;;;;;55.22;22.40;;;;;;;7.26;100.00;101065.91;7377701;19;20098;-75
2022/11/28 06:57:08;;;;;;;56.60;21.17;;;;;;;7.27;100.00;101065.06;7373345;19;20026;-74
2022/11/28 06:59:38;;;;;;;54.17;22.85;;;;;;;7.27;100.00;101065.97;7375914;19;20609;-76
2022/11/28 07:02:08;;;;;;;56.05;22.02;;;;;;;7.28;100.00;101070.31;7372336;19;20025;-75
2022/11/28 07:04:38;;;;;;;55.00;20.50;;;;;;;7.28;100.00;101072.06;7376600;19;20122;-75
2022/11/28 07:07:08;;;;;;;52.70;23.08;;;;;;;7.27;100.00;101079.00;7378849;19;20031;-75
2022/11/28 07:09:47;;;;;;;54.38;21.40;;;;;;;7.29;100.00;101087.72;7376637;19;20010;-75
2022/11/28 07:12:16;;;;;;;61.17;24.15;;;;;;;7.33;100.00;101083.47;7374506;19;20532;-74
2022/11/28 07:14:46;;;;;;;62.50;22.00;;;;;;;7.31;100.00;101086.03;7379630;19;20445;-73
2022/11/28 07:17:16;;;;;;;54.50;20.88;;;;;;;7.34;100.00;101091.34;7378150;19;20039;-73
2022/11/28 07:19:46;;;;;;;58.15;20.77;;;;;;;7.35;100.00;101090.53;7376007;19;20010;-73
2022/11/28 07:22:24;;;;;;;55.88;22.60;;;;;;;7.36;100.00;101083.56;7377596;19;20018;-74
2022/11/28 07:24:56;;;;;;;55.08;20.55;;;;;;;7.36;100.00;101086.19;7377801;19;20059;-74
2022/11/28 07:27:26;;;;;;;52.80;19.48;;;;;;;7.36;100.00;101084.47;7377539;19;20014;-74
2022/11/28 07:29:56;;;;;;;53.00;20.88;;;;;;;7.37;100.00;101093.19;7376155;19;20023;-74
2022/11/28 07:35:13;;;;;;;60.05;22.40;;;;;;;7.38;100.00;101098.44;7376696;19;20014;-73
2022/11/28 07:37:47;;;;;;;57.22;22.45;;;;;;;7.42;100.00;101100.31;7373076;19;20081;-73
2022/11/28 07:40:21;;;;;;;59.67;22.15;;;;;;;7.43;100.00;101107.28;7369958;19;20018;-74
2022/11/28 09:10:59;;;;;;;62.60;22.45;;;;;;;8.17;100.00;101139.91;7359026;19;20056;-73
2022/11/28 10:05:55;;;;;;;60.35;23.25;;;;;;;8.68;100.00;101165.69;7365371;19;20022;-74
2022/11/28 10:31:46;;;;;;;62.67;23.77;;;;;;;8.87;100.00;101174.00;7365089;19;20078;-75
2022/11/28 10:34:55;;;;;;;57.88;22.38;;;;;;;8.92;100.00;101178.50;7364747;19;20010;-74
2022/11/28 11:24:47;;;;;;;58.40;21.80;;;;;;;9.22;100.00;101186.22;7365762;19;20462;-73
2022/11/28 11:31:33;;;;;;;58.67;23.23;;;;;;;9.24;100.00;101181.91;7367644;19;20017;-74
2022/11/28 11:34:21;;;;;;;63.70;24.30;;;;;;;9.26;100.00;101177.59;7374473;19;20043;-74
2022/11/28 11:37:49;;;;;;;55.75;22.17;;;;;;;9.31;100.00;101170.75;7379491;19;20054;-74
2022/11/28 11:40:38;;;;;;;60.53;21.98;;;;;;;9.34;100.00;101165.59;7369296;19;20245;-74
2022/11/28 11:43:26;;;;;;;52.97;24.55;;;;;;;9.37;100.00;101160.38;7373504;19;20015;-74
2022/11/28 11:46:23;;;;;;;62.80;23.50;;;;;;;9.40;100.00;101165.69;7375143;19;20015;-74
2022/11/28 11:49:49;;;;;;;63.40;23.58;;;;;;;9.46;100.00;101164.94;7371854;19;20014;-75
2022/11/28 11:52:26;;;;;;;54.85;21.30;;;;;;;9.50;100.00;101178.16;7367653;19;20007;-74
2022/11/28 11:55:11;;;;;;;50.88;21.02;;;;;;;9.51;100.00;101164.22;7369531;19;20010;-74
2022/11/28 11:57:48;;;;;;;53.20;20.90;;;;;;;9.56;100.00;101163.44;7378558;19;20015;-74
2022/11/28 12:00:23;;;;;;;55.10;21.48;;;;;;;9.62;100.00;101168.81;7378356;19;20503;-74
2022/11/28 12:03:02;;;;;;;48.90;19.27;;;;;;;9.68;100.00;101158.47;7376937;19;20018;-74
2022/11/28 12:05:51;;;;;;;;;;;;;;;;;;;;;
2022/11/28 12:09:01;;;;;;;52.72;20.33;;;;;;;9.78;100.00;101165.66;7373897;19;20028;-74
2022/11/28 12:11:40;;;;;;;49.47;19.80;;;;;;;9.84;100.00;101173.66;7377400;19;20017;-75
2022/11/28 12:14:28;;;;;;;54.10;20.25;;;;;;;9.83;100.00;101171.88;7376842;19;20018;-77
2022/11/28 12:17:22;;;;;;;51.40;19.15;;;;;;;9.90;100.00;101175.53;7374744;19;20782;-77
2022/11/28 12:20:26;;;;;;;44.40;19.87;;;;;;;9.96;100.00;101188.75;7369320;19;20559;-77
2022/11/28 12:23:00;;;;;;;;;;;;;;;9.92;100.00;101172.09;7375859;19;20009;-77
2022/11/28 12:25:39;;;;;;;49.28;20.13;;;;;;;9.94;100.00;101186.09;7377003;19;19933;-77
2022/11/28 12:28:23;;;;;;;46.72;17.33;;;;;;;9.94;100.00;101182.59;7371681;19;20014;-76
2022/11/28 12:31:03;;;;;;;54.25;20.38;;;;;;;10.03;100.00;101175.81;7371774;19;20018;-76
2022/11/28 12:33:46;;;;;;;46.00;18.83;;;;;;;10.20;100.00;101181.44;7372775;19;20014;-76
2022/11/28 12:36:28;;;;;;;40.38;19.00;;;;;;;10.29;100.00;101173.75;7371116;19;20021;-77
2022/11/28 12:39:13;;;;;;;48.97;18.83;;;;;;;10.43;100.00;101171.38;7374695;19;20102;-78
2022/11/28 12:42:08;;;;;;;41.17;18.55;;;;;;;10.59;100.00;101183.03;7377683;19;20019;-76
2022/11/28 12:45:00;;;;;;;44.22;17.85;;;;;;;10.63;100.00;101182.25;7375230;19;20018;-77
2022/11/28 12:47:46;;;;;;;48.65;17.42;;;;;;;10.68;100.00;101184.09;7369113;19;20015;-75
2022/11/28 12:50:30;;;;;;;37.88;17.50;;;;;;;10.67;100.00;101182.31;7374440;19;20010;-77
2022/11/28 12:53:33;;;;;;;39.58;16.75;;;;;;;10.62;100.00;101176.09;7373445;19;20054;-76
2022/11/28 12:56:11;;;;;;;36.35;16.10;;;;;;;10.51;100.00;101182.88;7376534;19;20094;-76
2022/11/28 12:58:46;;;;;;;42.42;18.15;;;;;;;10.50;100.00;101194.25;7376717;19;20021;-77
2022/11/28 13:01:37;;;;;;;51.20;19.65;;;;;;;10.48;100.00;101194.19;7373386;19;20039;-76
2022/11/28 13:04:22;;;;;;;44.95;17.60;;;;;;;10.40;100.00;101195.78;7373663;19;20042;-77
2022/11/28 13:07:06;;;;;;;38.72;15.60;;;;;;;10.39;100.00;101206.28;7376004;19;20094;-76
2022/11/28 13:09:45;;;;;;;35.53;15.57;;;;;;;10.38;100.00;101207.13;7376705;19;20022;-76
2022/11/28 13:12:39;;;;;;;41.38;16.83;;;;;;;10.35;100.00;101205.34;7379028;19;20022;-76
2022/11/28 13:15:18;;;;;;;40.97;16.40;;;;;;;10.32;100.00;101212.25;7368494;19;20025;-75
2022/11/28 13:17:55;;;;;;;38.17;14.90;;;;;;;10.33;100.00;101212.28;7368810;19;20027;-75
2022/11/28 13:20:31;;;;;;;37.88;14.77;;;;;;;10.33;100.00;101214.91;7374442;19;20019;-74
2022/11/28 13:23:16;;;;;;;46.78;17.80;;;;;;;10.29;100.00;101214.81;7378195;19;20018;-73
2022/11/28 13:25:55;;;;;;;39.20;17.88;;;;;;;10.32;100.00;101214.88;7377803;19;20044;-74
2022/11/28 13:28:34;;;;;;;40.95;17.40;;;;;;;10.26;100.00;101217.38;7376731;19;20014;-74
2022/11/28 13:31:09;;;;;;;39.60;17.88;;;;;;;10.22;100.00;101213.81;7373160;19;20304;-75
2022/11/28 13:33:51;;;;;;;43.65;18.13;;;;;;;10.19;100.00;101204.97;7374705;19;20513;-75
2022/11/28 13:36:31;;;;;;;43.92;16.92;;;;;;;10.19;100.00;101212.81;7377827;19;20090;-74
2022/11/28 13:39:31;;;;;;;39.95;16.90;;;;;;;10.15;100.00;101207.53;7376068;19;20006;-74
2022/11/28 13:42:17;;;;;;;36.45;15.60;;;;;;;10.15;100.00;101207.53;7375681;19;20014;-74
2022/11/28 13:45:21;;;;;;;43.65;15.70;;;;;;;10.13;100.00;101211.84;7375725;19;20126;-75
2022/11/28 13:48:01;;;;;;;36.55;16.10;;;;;;;10.07;100.00;101222.19;7377834;19;20078;-74
2022/11/28 13:50:42;;;;;;;37.85;16.13;;;;;;;10.09;100.00;101222.22;7375457;19;20010;-75
2022/11/28 13:53:24;;;;;;;44.08;18.48;;;;;;;10.01;100.00;101229.94;7374512;19;20025;-74
2022/11/28 13:56:14;;;;;;;40.47;16.85;;;;;;;10.00;100.00;101232.50;7373943;19;20475;-75
2022/11/28 13:58:51;;;;;;;38.60;16.58;;;;;;;9.97;100.00;101230.72;7374105;19;20017;-76
2022/11/28 14:01:23;;;;;;;42.45;17.65;;;;;;;9.93;100.00;101235.84;7373751;19;20011;-75
2022/11/28 14:04:09;;;;;;;47.30;17.98;;;;;;;9.91;100.00;101227.06;7372496;19;20022;-74
2022/11/28 14:06:45;;;;;;;41.47;16.67;;;;;;;9.93;100.00;101228.88;7366698;19;20010;-74
2022/11/28 14:09:36;;;;;;;37.35;15.38;;;;;;;9.98;100.00;101232.47;7365800;19;20019;-75
2022/11/28 14:12:19;;;;;;;35.65;15.73;;;;;;;9.97;100.00;101237.69;7367915;19;20007;-75
2022/11/28 14:15:16;;;;;;;33.47;14.68;;;;;;;9.93;100.00;101228.88;7365427;19;21127;-74
2022/11/28 14:18:00;;;;;;;34.83;13.18;;;;;;;9.93;100.00;101234.13;7366808;19;20014;-75
2022/11/28 14:20:40;;;;;;;32.60;12.70;;;;;;;9.92;100.00;101228.84;7369926;19;20098;-74
2022/11/28 14:23:27;;;;;;;35.20;13.40;;;;;;;9.93;100.00;101235.84;7369289;19;20014;-75
2022/11/28 14:25:58;;;;;;;36.85;14.70;;;;;;;9.92;100.00;101234.97;7377414;19;20015;-75
2022/11/28 14:28:35;;;;;;;42.80;14.80;;;;;;;9.93;100.00;101243.72;7375307;19;20745;-75
2022/11/28 14:31:26;;;;;;;38.03;14.40;;;;;;;9.86;100.00;101240.06;7374909;19;20014;-75
2022/11/28 14:34:04;;;;;;;34.15;12.60;;;;;;;9.78;100.00;101253.00;7374502;19;20098;-74
2022/11/28 14:36:42;;;;;;;35.00;13.38;;;;;;;9.74;100.00;101258.13;7373532;19;20015;-74
2022/11/28 14:39:34;;;;;;;35.88;13.52;;;;;;;9.71;100.00;101263.28;7377616;19;20003;-75
2022/11/28 14:42:39;;;;;;;37.40;13.73;;;;;;;9.67;100.00;101264.06;7373641;19;20014;-74
2022/11/28 14:45:52;;;;;;;29.08;12.52;;;;;;;9.57;100.00;101272.56;7376296;19;20035;-73
2022/11/28 14:48:38;;;;;;;27.57;11.23;;;;;;;9.52;100.00;101270.72;7376540;19;20070;-75
2022/11/28 14:51:15;;;;;;;34.72;13.30;;;;;;;9.50;100.00;101272.41;7375486;19;20014;-74
2022/11/28 14:53:54;;;;;;;35.92;13.30;;;;;;;9.45;100.00;101274.03;7373593;19;20425;-74
2022/11/28 14:56:29;;;;;;;26.08;10.48;;;;;;;9.40;100.00;101272.13;7376530;19;20011;-74
2022/11/28 14:59:02;;;;;;;29.00;11.77;;;;;;;9.36;100.00;101270.31;7371565;19;20044;-74
2022/11/28 15:01:58;;;;;;;31.35;11.95;;;;;;;9.29;100.00;101274.53;7372234;19;20088;-75
2022/11/28 15:05:00;;;;;;;29.27;12.10;;;;;;;9.21;100.00;101283.03;7377766;19;20015;-72
2022/11/28 15:07:53;;;;;;;31.30;11.25;;;;;;;9.16;100.00;101282.91;7374067;19;20025;-74
2022/11/28 15:10:32;;;;;;;33.53;11.82;;;;;;;9.09;100.00;101288.81;7374005;19;20542;-74
2022/11/28 15:13:11;;;;;;;23.65;12.48;;;;;;;8.99;100.00;101292.03;7375222;19;20018;-74
2022/11/28 15:15:50;;;;;;;36.83;11.82;;;;;;;8.95;100.00;101301.53;7371819;19;20429;-74
2022/11/28 15:21:23;;;;;;;28.95;9.80;;;;;;;8.84;100.00;101306.47;7376918;19;20017;-74
2022/11/28 15:24:08;;;;;;;23.95;10.02;;;;;;;8.76;100.00;101307.09;7374225;19;20010;-74
2022/11/28 15:26:43;;;;;;;23.10;8.93;;;;;;;8.69;100.00;101302.53;7376225;19;20022;-73
2022/11/28 15:29:24;;;;;;;29.05;9.10;;;;;;;8.61;100.00;101310.16;7372813;19;20015;-74
2022/11/28 15:32:32;;;;;;;23.85;8.45;;;;;;;8.57;100.00;101312.66;7377032;19;20683;-73
2022/11/28 15:35:07;;;;;;;23.15;8.90;;;;;;;8.51;100.00;101309.00;7376518;19;20098;-74
2022/11/28 15:38:02;;;;;;;23.60;8.45;;;;;;;8.45;100.00;101313.19;7377773;19;20233;-74
2022/11/28 15:40:41;;;;;;;20.10;7.40;;;;;;;8.42;100.00;101315.69;7374911;19;20018;-74